Whiteman Air Force Base, Missouri
Current Conditions -  °F | °C
As of 1:58 PM on Wednesday 28 Jan 2015 (Local Time) from KSZL Reporting Station
Scattered Clouds Scattered Clouds  
Wind Chill: 68°   Ceiling: Unl
Heat Index: 68°   Visibility: 10mi
Dew Point: 40°   Wind: 23mph
Humidity: 36%   Direction: 200°SSW
Pressure: 29.81"   Gusts: 31mph
Location:  38.7318°N, 93.5731°W
Report Text: KSZL 281958Z 20020G27KT 10SM SCT250 20/05 A2981 RMK AO2A PK WND 19027/43 SLP098 T02010045 $
Loading
Personal Weather Stations






























Interactive Weather Map New forecast layout! Learn more

10-Day Weather Forecast

Advertisements
Track Severe Weather on mobile